sensor_id;sensor_type;location;lat;lon;timestamp;pressure;altitude;pressure_sealevel;temperature;humidity
60871;BME280;46714;50.118;14.462;2024-02-14T00:00:01;99416.72;;;0.98;100.00
60871;BME280;46714;50.118;14.462;2024-02-14T00:02:27;99418.56;;;0.98;100.00
60871;BME280;46714;50.118;14.462;2024-02-14T00:04:53;99430.28;;;0.97;100.00
60871;BME280;46714;50.118;14.462;2024-02-14T00:07:19;99424.22;;;0.95;100.00
60871;BME280;46714;50.118;14.462;2024-02-14T00:09:45;99429.72;;;0.93;100.00
60871;BME280;46714;50.118;14.462;2024-02-14T00:12:10;99421.16;;;0.90;100.00
60871;BME280;46714;50.118;14.462;2024-02-14T00:14:36;99430.88;;;0.91;100.00
60871;BME280;46714;50.118;14.462;2024-02-14T00:17:02;99436.53;;;0.88;100.00
60871;BME280;46714;50.118;14.462;2024-02-14T00:19:28;99431.88;;;0.90;100.00
60871;BME280;46714;50.118;14.462;2024-02-14T00:21:53;99438.06;;;0.90;100.00
60871;BME280;46714;50.118;14.462;2024-02-14T00:24:19;99431.31;;;0.86;100.00
60871;BME280;46714;50.118;14.462;2024-02-14T00:26:44;99432.44;;;0.83;100.00
60871;BME280;46714;50.118;14.462;2024-02-14T00:29:11;99436.13;;;0.82;100.00
60871;BME280;46714;50.118;14.462;2024-02-14T00:31:36;99435.97;;;0.84;100.00
60871;BME280;46714;50.118;14.462;2024-02-14T00:34:02;99428.94;;;0.83;100.00
60871;BME280;46714;50.118;14.462;2024-02-14T00:36:30;99437.22;;;0.80;100.00
60871;BME280;46714;50.118;14.462;2024-02-14T00:38:56;99436.41;;;0.79;100.00
60871;BME280;46714;50.118;14.462;2024-02-14T00:41:21;99442.31;;;0.83;100.00
60871;BME280;46714;50.118;14.462;2024-02-14T00:43:46;99438.50;;;0.86;100.00
60871;BME280;46714;50.118;14.462;2024-02-14T00:46:16;99438.59;;;0.94;100.00
60871;BME280;46714;50.118;14.462;2024-02-14T00:48:42;99442.53;;;0.99;100.00
60871;BME280;46714;50.118;14.462;2024-02-14T00:51:09;99441.09;;;1.05;100.00
60871;BME280;46714;50.118;14.462;2024-02-14T00:53:35;99446.03;;;1.10;100.00
60871;BME280;46714;50.118;14.462;2024-02-14T00:56:00;99447.56;;;1.12;100.00
60871;BME280;46714;50.118;14.462;2024-02-14T00:58:25;99445.56;;;1.14;100.00
60871;BME280;46714;50.118;14.462;2024-02-14T01:00:51;99448.81;;;1.18;100.00
60871;BME280;46714;50.118;14.462;2024-02-14T01:03:16;99452.19;;;1.20;100.00
60871;BME280;46714;50.118;14.462;2024-02-14T01:05:42;99441.34;;;1.21;100.00
60871;BME280;46714;50.118;14.462;2024-02-14T01:08:08;99442.19;;;1.22;100.00
60871;BME280;46714;50.118;14.462;2024-02-14T01:10:33;99437.34;;;1.25;100.00
60871;BME280;46714;50.118;14.462;2024-02-14T01:12:59;99436.38;;;1.27;100.00
60871;BME280;46714;50.118;14.462;2024-02-14T01:15:24;99436.06;;;1.30;100.00
60871;BME280;46714;50.118;14.462;2024-02-14T01:17:50;99433.94;;;1.33;100.00
60871;BME280;46714;50.118;14.462;2024-02-14T01:20:16;99423.91;;;1.35;100.00
60871;BME280;46714;50.118;14.462;2024-02-14T01:22:41;99429.94;;;1.37;100.00
60871;BME280;46714;50.118;14.462;2024-02-14T01:25:06;99432.63;;;1.37;100.00
60871;BME280;46714;50.118;14.462;2024-02-14T01:27:32;99438.16;;;1.36;100.00
60871;BME280;46714;50.118;14.462;2024-02-14T01:29:58;99431.41;;;1.32;100.00
60871;BME280;46714;50.118;14.462;2024-02-14T01:32:24;99434.09;;;1.32;100.00
60871;BME280;46714;50.118;14.462;2024-02-14T01:34:49;99425.47;;;1.28;100.00
60871;BME280;46714;50.118;14.462;2024-02-14T01:37:15;99426.63;;;1.25;100.00
60871;BME280;46714;50.118;14.462;2024-02-14T01:39:40;99429.16;;;1.27;100.00
60871;BME280;46714;50.118;14.462;2024-02-14T01:42:06;99426.34;;;1.29;100.00
60871;BME280;46714;50.118;14.462;2024-02-14T01:44:32;99423.66;;;1.29;100.00
60871;BME280;46714;50.118;14.462;2024-02-14T01:46:59;99421.25;;;1.25;100.00
60871;BME280;46714;50.118;14.462;2024-02-14T01:49:27;99427.50;;;1.26;100.00
60871;BME280;46714;50.118;14.462;2024-02-14T01:51:53;99418.44;;;1.27;100.00
60871;BME280;46714;50.118;14.462;2024-02-14T01:54:23;99425.66;;;1.27;100.00
60871;BME280;46714;50.118;14.462;2024-02-14T01:56:49;99421.13;;;1.27;100.00
60871;BME280;46714;50.118;14.462;2024-02-14T01:59:15;99420.13;;;1.28;100.00
60871;BME280;46714;50.118;14.462;2024-02-14T02:01:43;99413.63;;;1.31;100.00
60871;BME280;46714;50.118;14.462;2024-02-14T02:04:08;99419.00;;;1.31;100.00
60871;BME280;46714;50.118;14.462;2024-02-14T02:06:34;99413.31;;;1.34;100.00
60871;BME280;46714;50.118;14.462;2024-02-14T02:09:00;99417.53;;;1.36;100.00
60871;BME280;46714;50.118;14.462;2024-02-14T02:11:26;99418.94;;;1.40;100.00
60871;BME280;46714;50.118;14.462;2024-02-14T02:13:51;99415.81;;;1.45;100.00
60871;BME280;46714;50.118;14.462;2024-02-14T02:16:17;99412.81;;;1.48;100.00
60871;BME280;46714;50.118;14.462;2024-02-14T02:18:44;99407.13;;;1.51;100.00
60871;BME280;46714;50.118;14.462;2024-02-14T02:21:10;99408.53;;;1.55;100.00
60871;BME280;46714;50.118;14.462;2024-02-14T02:23:38;99405.56;;;1.58;100.00
60871;BME280;46714;50.118;14.462;2024-02-14T02:26:05;99407.47;;;1.66;100.00
60871;BME280;46714;50.118;14.462;2024-02-14T02:28:31;99406.31;;;1.68;100.00
60871;BME280;46714;50.118;14.462;2024-02-14T02:30:56;99410.53;;;1.71;100.00
60871;BME280;46714;50.118;14.462;2024-02-14T02:33:22;99405.88;;;1.73;100.00
60871;BME280;46714;50.118;14.462;2024-02-14T02:35:47;99413.47;;;1.78;100.00
60871;BME280;46714;50.118;14.462;2024-02-14T02:38:15;99404.56;;;1.77;100.00
60871;BME280;46714;50.118;14.462;2024-02-14T02:40:41;99407.97;;;1.79;100.00
60871;BME280;46714;50.118;14.462;2024-02-14T02:43:06;99407.63;;;1.82;100.00
60871;BME280;46714;50.118;14.462;2024-02-14T02:45:32;99401.44;;;1.82;100.00
60871;BME280;46714;50.118;14.462;2024-02-14T02:47:57;99398.91;;;1.80;100.00
60871;BME280;46714;50.118;14.462;2024-02-14T02:50:22;99405.09;;;1.81;100.00
60871;BME280;46714;50.118;14.462;2024-02-14T02:52:48;99404.25;;;1.80;100.00
60871;BME280;46714;50.118;14.462;2024-02-14T02:55:13;99408.47;;;1.83;100.00
60871;BME280;46714;50.118;14.462;2024-02-14T02:57:42;99412.03;;;1.83;100.00
60871;BME280;46714;50.118;14.462;2024-02-14T03:00:08;99397.59;;;1.84;100.00
60871;BME280;46714;50.118;14.462;2024-02-14T03:02:35;99403.66;;;1.86;100.00
60871;BME280;46714;50.118;14.462;2024-02-14T03:05:06;99411.84;;;1.85;100.00
60871;BME280;46714;50.118;14.462;2024-02-14T03:07:35;99409.72;;;1.88;100.00
60871;BME280;46714;50.118;14.462;2024-02-14T03:10:02;99409.41;;;1.92;100.00
60871;BME280;46714;50.118;14.462;2024-02-14T03:12:28;99410.25;;;1.92;100.00
60871;BME280;46714;50.118;14.462;2024-02-14T03:14:55;99416.75;;;1.89;100.00
60871;BME280;46714;50.118;14.462;2024-02-14T03:17:22;99413.25;;;1.89;100.00
60871;BME280;46714;50.118;14.462;2024-02-14T03:19:47;99410.69;;;1.87;100.00
60871;BME280;46714;50.118;14.462;2024-02-14T03:22:15;99408.88;;;1.88;100.00
60871;BME280;46714;50.118;14.462;2024-02-14T03:24:44;99412.53;;;1.87;100.00
60871;BME280;46714;50.118;14.462;2024-02-14T03:27:11;99414.53;;;1.85;100.00
60871;BME280;46714;50.118;14.462;2024-02-14T03:29:37;99406.50;;;1.85;100.00
60871;BME280;46714;50.118;14.462;2024-02-14T03:32:03;99405.78;;;1.83;100.00
60871;BME280;46714;50.118;14.462;2024-02-14T03:34:29;99408.34;;;1.84;100.00
60871;BME280;46714;50.118;14.462;2024-02-14T03:36:58;99411.56;;;1.88;100.00
60871;BME280;46714;50.118;14.462;2024-02-14T03:39:23;99403.53;;;1.88;100.00
60871;BME280;46714;50.118;14.462;2024-02-14T03:41:49;99401.13;;;1.85;100.00
60871;BME280;46714;50.118;14.462;2024-02-14T03:44:14;99417.69;;;1.80;100.00
60871;BME280;46714;50.118;14.462;2024-02-14T03:46:39;99417.16;;;1.77;100.00
60871;BME280;46714;50.118;14.462;2024-02-14T03:49:05;99412.78;;;1.76;100.00
60871;BME280;46714;50.118;14.462;2024-02-14T03:51:30;99413.91;;;1.73;100.00
60871;BME280;46714;50.118;14.462;2024-02-14T03:53:56;99406.19;;;1.70;100.00
60871;BME280;46714;50.118;14.462;2024-02-14T03:56:21;99408.31;;;1.66;100.00
60871;BME280;46714;50.118;14.462;2024-02-14T03:58:46;99408.63;;;1.63;100.00
60871;BME280;46714;50.118;14.462;2024-02-14T04:01:12;99404.25;;;1.62;100.00
60871;BME280;46714;50.118;14.462;2024-02-14T04:03:38;99402.00;;;1.58;100.00
60871;BME280;46714;50.118;14.462;2024-02-14T04:06:03;99403.16;;;1.55;100.00
60871;BME280;46714;50.118;14.462;2024-02-14T04:08:29;99396.97;;;1.55;100.00
60871;BME280;46714;50.118;14.462;2024-02-14T04:10:54;99403.34;;;1.54;100.00
60871;BME280;46714;50.118;14.462;2024-02-14T04:13:20;99398.13;;;1.52;100.00
60871;BME280;46714;50.118;14.462;2024-02-14T04:15:46;99396.13;;;1.54;100.00
60871;BME280;46714;50.118;14.462;2024-02-14T04:18:12;99405.16;;;1.53;100.00
60871;BME280;46714;50.118;14.462;2024-02-14T04:20:37;99395.13;;;1.55;100.00
60871;BME280;46714;50.118;14.462;2024-02-14T04:23:03;99393.13;;;1.57;100.00
60871;BME280;46714;50.118;14.462;2024-02-14T04:25:31;99398.50;;;1.57;100.00
60871;BME280;46714;50.118;14.462;2024-02-14T04:27:57;99401.72;;;1.61;100.00
60871;BME280;46714;50.118;14.462;2024-02-14T04:30:22;99399.75;;;1.63;100.00
60871;BME280;46714;50.118;14.462;2024-02-14T04:32:48;99405.81;;;1.65;100.00
60871;BME280;46714;50.118;14.462;2024-02-14T04:35:14;99402.13;;;1.66;100.00
60871;BME280;46714;50.118;14.462;2024-02-14T04:37:39;99401.81;;;1.69;100.00
60871;BME280;46714;50.118;14.462;2024-02-14T04:40:08;99401.66;;;1.71;100.00
60871;BME280;46714;50.118;14.462;2024-02-14T04:42:35;99400.50;;;1.73;100.00
60871;BME280;46714;50.118;14.462;2024-02-14T04:45:00;99395.00;;;1.75;100.00
60871;BME280;46714;50.118;14.462;2024-02-14T04:47:25;99389.63;;;1.75;100.00
60871;BME280;46714;50.118;14.462;2024-02-14T04:49:51;99396.53;;;1.77;100.00
60871;BME280;46714;50.118;14.462;2024-02-14T04:52:16;99392.84;;;1.78;100.00
60871;BME280;46714;50.118;14.462;2024-02-14T04:54:42;99394.53;;;1.79;100.00
60871;BME280;46714;50.118;14.462;2024-02-14T04:57:07;99390.00;;;1.80;100.00
60871;BME280;46714;50.118;14.462;2024-02-14T04:59:32;99389.00;;;1.81;100.00
60871;BME280;46714;50.118;14.462;2024-02-14T05:01:58;99395.06;;;1.83;100.00
60871;BME280;46714;50.118;14.462;2024-02-14T05:04:23;99386.31;;;1.81;100.00
60871;BME280;46714;50.118;14.462;2024-02-14T05:06:49;99385.34;;;1.82;100.00
60871;BME280;46714;50.118;14.462;2024-02-14T05:09:15;99387.00;;;1.83;100.00
60871;BME280;46714;50.118;14.462;2024-02-14T05:11:40;99378.81;;;1.84;100.00
60871;BME280;46714;50.118;14.462;2024-02-14T05:14:06;99383.03;;;1.87;100.00
60871;BME280;46714;50.118;14.462;2024-02-14T05:16:32;99396.59;;;1.85;100.00
60871;BME280;46714;50.118;14.462;2024-02-14T05:18:57;99396.13;;;1.90;100.00
60871;BME280;46714;50.118;14.462;2024-02-14T05:21:22;99393.16;;;1.93;100.00
60871;BME280;46714;50.118;14.462;2024-02-14T05:23:48;99388.47;;;1.95;100.00
60871;BME280;46714;50.118;14.462;2024-02-14T05:26:13;99399.91;;;1.97;100.00
60871;BME280;46714;50.118;14.462;2024-02-14T05:28:39;99396.22;;;1.98;100.00
60871;BME280;46714;50.118;14.462;2024-02-14T05:31:05;99395.91;;;2.01;100.00
60871;BME280;46714;50.118;14.462;2024-02-14T05:33:30;99390.06;;;2.06;100.00
60871;BME280;46714;50.118;14.462;2024-02-14T05:35:55;99391.63;;;2.08;100.00
60871;BME280;46714;50.118;14.462;2024-02-14T05:38:21;99390.47;;;2.11;100.00
60871;BME280;46714;50.118;14.462;2024-02-14T05:40:46;99392.84;;;2.14;100.00
60871;BME280;46714;50.118;14.462;2024-02-14T05:43:12;99397.75;;;2.19;100.00
60871;BME280;46714;50.118;14.462;2024-02-14T05:45:38;99395.75;;;2.21;100.00
60871;BME280;46714;50.118;14.462;2024-02-14T05:48:03;99390.03;;;2.24;100.00
60871;BME280;46714;50.118;14.462;2024-02-14T05:50:29;99400.31;;;2.28;100.00
60871;BME280;46714;50.118;14.462;2024-02-14T05:52:54;99398.31;;;2.30;100.00
60871;BME280;46714;50.118;14.462;2024-02-14T05:55:22;99400.88;;;2.32;100.00
60871;BME280;46714;50.118;14.462;2024-02-14T05:57:47;99413.13;;;2.35;100.00
60871;BME280;46714;50.118;14.462;2024-02-14T06:00:13;99405.22;;;2.33;100.00
60871;BME280;46714;50.118;14.462;2024-02-14T06:02:39;99402.53;;;2.33;100.00
60871;BME280;46714;50.118;14.462;2024-02-14T06:05:06;99400.69;;;2.34;100.00
60871;BME280;46714;50.118;14.462;2024-02-14T06:07:37;99405.22;;;2.33;100.00
60871;BME280;46714;50.118;14.462;2024-02-14T06:10:03;99406.94;;;2.34;100.00
60871;BME280;46714;50.118;14.462;2024-02-14T06:12:28;99407.63;;;2.36;100.00
60871;BME280;46714;50.118;14.462;2024-02-14T06:14:54;99405.78;;;2.37;100.00
60871;BME280;46714;50.118;14.462;2024-02-14T06:17:20;99408.28;;;2.38;100.00
60871;BME280;46714;50.118;14.462;2024-02-14T06:19:45;99409.16;;;2.39;100.00
60871;BME280;46714;50.118;14.462;2024-02-14T06:22:11;99403.78;;;2.39;100.00
60871;BME280;46714;50.118;14.462;2024-02-14T06:24:36;99408.97;;;2.40;100.00
60871;BME280;46714;50.118;14.462;2024-02-14T06:27:02;99417.91;;;2.41;100.00
60871;BME280;46714;50.118;14.462;2024-02-14T06:29:27;99414.19;;;2.42;100.00
60871;BME280;46714;50.118;14.462;2024-02-14T06:31:52;99411.19;;;2.45;100.00
60871;BME280;46714;50.118;14.462;2024-02-14T06:34:18;99412.91;;;2.46;100.00
60871;BME280;46714;50.118;14.462;2024-02-14T06:36:45;99410.72;;;2.49;100.00
60871;BME280;46714;50.118;14.462;2024-02-14T06:39:11;99413.13;;;2.53;100.00
60871;BME280;46714;50.118;14.462;2024-02-14T06:41:37;99411.13;;;2.55;100.00
60871;BME280;46714;50.118;14.462;2024-02-14T06:44:03;99407.25;;;2.57;100.00
60871;BME280;46714;50.118;14.462;2024-02-14T06:46:29;99409.78;;;2.59;100.00
60871;BME280;46714;50.118;14.462;2024-02-14T06:48:54;99417.00;;;2.58;100.00
60871;BME280;46714;50.118;14.462;2024-02-14T06:51:21;99415.16;;;2.59;100.00
60871;BME280;46714;50.118;14.462;2024-02-14T06:53:47;99412.31;;;2.60;100.00
60871;BME280;46714;50.118;14.462;2024-02-14T06:56:13;99418.22;;;2.64;100.00
60871;BME280;46714;50.118;14.462;2024-02-14T06:58:39;99420.44;;;2.68;100.00
60871;BME280;46714;50.118;14.462;2024-02-14T07:01:04;99420.13;;;2.71;100.00
60871;BME280;46714;50.118;14.462;2024-02-14T07:03:29;99421.50;;;2.76;100.00
60871;BME280;46714;50.118;14.462;2024-02-14T07:05:55;99411.25;;;2.79;100.00
60871;BME280;46714;50.118;14.462;2024-02-14T07:08:20;99425.22;;;2.83;100.00
60871;BME280;46714;50.118;14.462;2024-02-14T07:10:45;99419.38;;;2.87;100.00
60871;BME280;46714;50.118;14.462;2024-02-14T07:13:11;99422.44;;;2.92;100.00
60871;BME280;46714;50.118;14.462;2024-02-14T07:15:36;99418.56;;;2.95;100.00
60871;BME280;46714;50.118;14.462;2024-02-14T07:18:01;99420.78;;;3.00;100.00
60871;BME280;46714;50.118;14.462;2024-02-14T07:20:28;99423.16;;;3.03;100.00
60871;BME280;46714;50.118;14.462;2024-02-14T07:22:55;99420.00;;;3.07;100.00
60871;BME280;46714;50.118;14.462;2024-02-14T07:25:21;99426.91;;;3.10;100.00
60871;BME280;46714;50.118;14.462;2024-02-14T07:27:47;99422.22;;;3.12;100.00
60871;BME280;46714;50.118;14.462;2024-02-14T07:30:15;99419.19;;;3.15;100.00
60871;BME280;46714;50.118;14.462;2024-02-14T07:32:46;99423.25;;;3.19;100.00
60871;BME280;46714;50.118;14.462;2024-02-14T07:35:11;99424.63;;;3.23;100.00
60871;BME280;46714;50.118;14.462;2024-02-14T07:37:38;99437.41;;;3.29;100.00
60871;BME280;46714;50.118;14.462;2024-02-14T07:40:04;99431.53;;;3.34;100.00
60871;BME280;46714;50.118;14.462;2024-02-14T07:42:30;99430.06;;;3.40;100.00
60871;BME280;46714;50.118;14.462;2024-02-14T07:44:56;99432.41;;;3.43;100.00
60871;BME280;46714;50.118;14.462;2024-02-14T07:47:22;99439.31;;;3.45;100.00
60871;BME280;46714;50.118;14.462;2024-02-14T07:49:47;99428.91;;;3.50;100.00
60871;BME280;46714;50.118;14.462;2024-02-14T07:52:13;99429.28;;;3.55;100.00
60871;BME280;46714;50.118;14.462;2024-02-14T07:54:38;99423.22;;;3.62;100.00
60871;BME280;46714;50.118;14.462;2024-02-14T07:57:03;99420.22;;;3.65;100.00
60871;BME280;46714;50.118;14.462;2024-02-14T07:59:29;99424.44;;;3.67;100.00
60871;BME280;46714;50.118;14.462;2024-02-14T08:01:54;99416.84;;;3.71;100.00
60871;BME280;46714;50.118;14.462;2024-02-14T08:04:21;99410.31;;;3.73;100.00
60871;BME280;46714;50.118;14.462;2024-02-14T08:06:46;99414.34;;;3.77;100.00
60871;BME280;46714;50.118;14.462;2024-02-14T08:09:14;99414.03;;;3.81;100.00
60871;BME280;46714;50.118;14.462;2024-02-14T08:11:39;99413.34;;;3.87;100.00
60871;BME280;46714;50.118;14.462;2024-02-14T08:14:05;99419.13;;;3.92;100.00
60871;BME280;46714;50.118;14.462;2024-02-14T08:16:30;99416.09;;;3.95;100.00
60871;BME280;46714;50.118;14.462;2024-02-14T08:18:55;99420.13;;;3.99;100.00
60871;BME280;46714;50.118;14.462;2024-02-14T08:21:27;99412.38;;;4.04;100.00
60871;BME280;46714;50.118;14.462;2024-02-14T08:23:53;99417.13;;;4.10;100.00
60871;BME280;46714;50.118;14.462;2024-02-14T08:26:20;99414.75;;;4.15;100.00
60871;BME280;46714;50.118;14.462;2024-02-14T08:28:47;99403.63;;;4.18;100.00
60871;BME280;46714;50.118;14.462;2024-02-14T08:31:13;99412.72;;;4.26;100.00
60871;BME280;46714;50.118;14.462;2024-02-14T08:33:38;99409.72;;;4.29;100.00
60871;BME280;46714;50.118;14.462;2024-02-14T08:36:07;99412.06;;;4.32;100.00
60871;BME280;46714;50.118;14.462;2024-02-14T08:38:33;99412.75;;;4.34;100.00
60871;BME280;46714;50.118;14.462;2024-02-14T08:41:00;99406.84;;;4.38;100.00
60871;BME280;46714;50.118;14.462;2024-02-14T08:43:29;99409.03;;;4.43;100.00
60871;BME280;46714;50.118;14.462;2024-02-14T08:45:55;99399.75;;;4.46;100.00
60871;BME280;46714;50.118;14.462;2024-02-14T08:48:21;99403.66;;;4.51;100.00
60871;BME280;46714;50.118;14.462;2024-02-14T08:50:47;99403.63;;;4.59;100.00
60871;BME280;46714;50.118;14.462;2024-02-14T08:53:12;99404.81;;;4.65;100.00
60871;BME280;46714;50.118;14.462;2024-02-14T08:55:41;99402.44;;;4.70;100.00
60871;BME280;46714;50.118;14.462;2024-02-14T08:58:09;99389.78;;;4.79;100.00
60871;BME280;46714;50.118;14.462;2024-02-14T09:00:37;99386.38;;;4.85;100.00
60871;BME280;46714;50.118;14.462;2024-02-14T09:03:04;99386.72;;;4.90;100.00
60871;BME280;46714;50.118;14.462;2024-02-14T09:05:30;99394.94;;;4.97;99.65
60871;BME280;46714;50.118;14.462;2024-02-14T09:07:56;99399.81;;;5.01;99.36
60871;BME280;46714;50.118;14.462;2024-02-14T09:10:21;99391.03;;;5.08;99.02
60871;BME280;46714;50.118;14.462;2024-02-14T09:12:47;99389.69;;;5.12;98.25
60871;BME280;46714;50.118;14.462;2024-02-14T09:15:14;99395.06;;;5.12;98.29
60871;BME280;46714;50.118;14.462;2024-02-14T09:17:40;99396.28;;;5.09;97.94
60871;BME280;46714;50.118;14.462;2024-02-14T09:20:08;99399.97;;;5.08;98.74
60871;BME280;46714;50.118;14.462;2024-02-14T09:22:35;99390.69;;;5.11;98.69
60871;BME280;46714;50.118;14.462;2024-02-14T09:25:00;99390.34;;;5.14;98.84
60871;BME280;46714;50.118;14.462;2024-02-14T09:27:29;99393.38;;;5.19;99.10
60871;BME280;46714;50.118;14.462;2024-02-14T09:29:55;99398.25;;;5.23;99.14
60871;BME280;46714;50.118;14.462;2024-02-14T09:32:20;99395.19;;;5.27;98.33
60871;BME280;46714;50.118;14.462;2024-02-14T09:34:45;99398.03;;;5.33;97.95
60871;BME280;46714;50.118;14.462;2024-02-14T09:37:11;99399.00;;;5.40;98.14
60871;BME280;46714;50.118;14.462;2024-02-14T09:39:36;99385.47;;;5.49;98.50
60871;BME280;46714;50.118;14.462;2024-02-14T09:42:02;99391.38;;;5.52;97.54
60871;BME280;46714;50.118;14.462;2024-02-14T09:44:33;99382.75;;;5.57;98.12
60871;BME280;46714;50.118;14.462;2024-02-14T09:47:00;99381.53;;;5.59;97.18
60871;BME280;46714;50.118;14.462;2024-02-14T09:49:26;99385.38;;;5.65;96.78
60871;BME280;46714;50.118;14.462;2024-02-14T09:51:53;99382.81;;;5.72;95.95
60871;BME280;46714;50.118;14.462;2024-02-14T09:54:21;99377.72;;;5.77;96.30
60871;BME280;46714;50.118;14.462;2024-02-14T09:56:48;99377.84;;;5.83;95.93
60871;BME280;46714;50.118;14.462;2024-02-14T09:59:22;99372.72;;;5.88;94.14
60871;BME280;46714;50.118;14.462;2024-02-14T10:01:48;99373.91;;;5.94;94.82
60871;BME280;46714;50.118;14.462;2024-02-14T10:04:15;99376.09;;;5.99;94.35
60871;BME280;46714;50.118;14.462;2024-02-14T10:06:43;99378.41;;;6.02;93.61
60871;BME280;46714;50.118;14.462;2024-02-14T10:09:08;99377.53;;;6.10;95.02
60871;BME280;46714;50.118;14.462;2024-02-14T10:11:35;99375.94;;;6.15;93.86
60871;BME280;46714;50.118;14.462;2024-02-14T10:14:01;99378.78;;;6.22;93.24
60871;BME280;46714;50.118;14.462;2024-02-14T10:16:29;99376.03;;;6.30;93.03
60871;BME280;46714;50.118;14.462;2024-02-14T10:18:55;99373.59;;;6.35;92.21
60871;BME280;46714;50.118;14.462;2024-02-14T10:21:21;99376.88;;;6.45;91.96
60871;BME280;46714;50.118;14.462;2024-02-14T10:23:47;99383.22;;;6.53;91.48
60871;BME280;46714;50.118;14.462;2024-02-14T10:26:14;99377.09;;;6.59;90.57
60871;BME280;46714;50.118;14.462;2024-02-14T10:28:43;99381.56;;;6.66;92.38
60871;BME280;46714;50.118;14.462;2024-02-14T10:31:10;99371.25;;;6.70;91.12
60871;BME280;46714;50.118;14.462;2024-02-14T10:33:36;99376.09;;;6.75;90.52
60871;BME280;46714;50.118;14.462;2024-02-14T10:36:02;99369.09;;;6.80;89.84
60871;BME280;46714;50.118;14.462;2024-02-14T10:38:31;99361.72;;;6.89;88.89
60871;BME280;46714;50.118;14.462;2024-02-14T10:41:00;99368.06;;;6.96;90.85
60871;BME280;46714;50.118;14.462;2024-02-14T10:43:27;99377.72;;;6.99;88.76
60871;BME280;46714;50.118;14.462;2024-02-14T10:45:56;99373.41;;;7.04;89.21
60871;BME280;46714;50.118;14.462;2024-02-14T10:48:25;99369.75;;;7.12;89.14
60871;BME280;46714;50.118;14.462;2024-02-14T10:50:58;99361.38;;;7.22;89.36
60871;BME280;46714;50.118;14.462;2024-02-14T10:53:25;99363.94;;;7.30;88.20
60871;BME280;46714;50.118;14.462;2024-02-14T10:55:54;99354.03;;;7.37;88.59
60871;BME280;46714;50.118;14.462;2024-02-14T10:58:23;99353.13;;;7.45;86.75
60871;BME280;46714;50.118;14.462;2024-02-14T11:00:49;99355.59;;;7.46;87.40
60871;BME280;46714;50.118;14.462;2024-02-14T11:03:16;99346.47;;;7.47;87.40
60871;BME280;46714;50.118;14.462;2024-02-14T11:05:43;99350.28;;;7.53;88.23
60871;BME280;46714;50.118;14.462;2024-02-14T11:08:10;99341.41;;;7.59;88.57
60871;BME280;46714;50.118;14.462;2024-02-14T11:10:38;99345.00;;;7.66;88.48
60871;BME280;46714;50.118;14.462;2024-02-14T11:13:04;99341.97;;;7.76;87.88
60871;BME280;46714;50.118;14.462;2024-02-14T11:15:37;99338.75;;;7.87;88.03
60871;BME280;46714;50.118;14.462;2024-02-14T11:18:06;99329.28;;;7.98;87.21
60871;BME280;46714;50.118;14.462;2024-02-14T11:20:34;99330.66;;;8.09;85.69
60871;BME280;46714;50.118;14.462;2024-02-14T11:23:04;99324.44;;;8.15;85.39
60871;BME280;46714;50.118;14.462;2024-02-14T11:25:34;99330.75;;;8.22;86.26
60871;BME280;46714;50.118;14.462;2024-02-14T11:27:59;99330.81;;;8.29;86.98
60871;BME280;46714;50.118;14.462;2024-02-14T11:30:45;99328.78;;;8.37;85.37
60871;BME280;46714;50.118;14.462;2024-02-14T11:33:21;99322.63;;;8.44;85.23
60871;BME280;46714;50.118;14.462;2024-02-14T11:35:49;99320.56;;;8.46;83.65
60871;BME280;46714;50.118;14.462;2024-02-14T11:38:20;99316.00;;;8.53;83.45
60871;BME280;46714;50.118;14.462;2024-02-14T11:40:47;99313.31;;;8.53;83.78
60871;BME280;46714;50.118;14.462;2024-02-14T11:43:14;99301.22;;;8.55;83.41
60871;BME280;46714;50.118;14.462;2024-02-14T11:45:42;99309.41;;;8.62;84.03
60871;BME280;46714;50.118;14.462;2024-02-14T11:48:08;99307.16;;;8.72;83.91
60871;BME280;46714;50.118;14.462;2024-02-14T11:50:35;99305.75;;;8.83;83.82
60871;BME280;46714;50.118;14.462;2024-02-14T11:53:00;99311.69;;;8.93;83.33
60871;BME280;46714;50.118;14.462;2024-02-14T11:55:29;99314.22;;;9.01;84.40
60871;BME280;46714;50.118;14.462;2024-02-14T11:57:55;99307.34;;;9.06;84.04
60871;BME280;46714;50.118;14.462;2024-02-14T12:00:21;99301.09;;;9.05;83.50
60871;BME280;46714;50.118;14.462;2024-02-14T12:02:46;99304.22;;;9.09;83.65
60871;BME280;46714;50.118;14.462;2024-02-14T12:05:12;99289.63;;;9.10;84.01
60871;BME280;46714;50.118;14.462;2024-02-14T12:07:39;99294.19;;;9.09;83.63
60871;BME280;46714;50.118;14.462;2024-02-14T12:10:05;99299.25;;;9.12;84.34
60871;BME280;46714;50.118;14.462;2024-02-14T12:12:31;99290.88;;;9.14;84.07
60871;BME280;46714;50.118;14.462;2024-02-14T12:14:57;99289.22;;;9.13;83.63
60871;BME280;46714;50.118;14.462;2024-02-14T12:17:23;99278.75;;;9.10;82.84
60871;BME280;46714;50.118;14.462;2024-02-14T12:19:49;99273.28;;;9.03;83.75
60871;BME280;46714;50.118;14.462;2024-02-14T12:22:15;99273.69;;;9.00;83.80
60871;BME280;46714;50.118;14.462;2024-02-14T12:24:45;99278.28;;;8.99;83.94
60871;BME280;46714;50.118;14.462;2024-02-14T12:27:10;99275.38;;;9.01;84.96
60871;BME280;46714;50.118;14.462;2024-02-14T12:29:36;99281.03;;;9.06;85.16
60871;BME280;46714;50.118;14.462;2024-02-14T12:32:05;99280.19;;;9.06;84.92
60871;BME280;46714;50.118;14.462;2024-02-14T12:34:31;99294.78;;;9.05;85.00
60871;BME280;46714;50.118;14.462;2024-02-14T12:36:57;99295.00;;;9.03;85.17
60871;BME280;46714;50.118;14.462;2024-02-14T12:39:23;99289.59;;;9.03;84.45
60871;BME280;46714;50.118;14.462;2024-02-14T12:41:51;99295.00;;;9.03;84.41
60871;BME280;46714;50.118;14.462;2024-02-14T12:44:17;99300.63;;;9.01;85.91
60871;BME280;46714;50.118;14.462;2024-02-14T12:46:42;99300.81;;;9.00;85.29